createdAt,value
2022-10-31T00:01:43.913Z,87.74
2022-10-31T00:04:42.354Z,87.63
2022-10-31T00:07:16.573Z,87.61
2022-10-31T00:09:53.621Z,87.70
2022-10-31T00:12:30.733Z,87.51
2022-10-31T00:15:12.535Z,87.56
2022-10-31T00:17:41.757Z,87.63
2022-10-31T00:20:17.763Z,87.92
2022-10-31T00:22:52.637Z,87.75
2022-10-31T00:25:30.894Z,87.60
2022-10-31T00:28:09.055Z,87.81
2022-10-31T00:30:38.195Z,88.11
2022-10-31T00:33:13.612Z,88.12
2022-10-31T00:36:06.721Z,88.10
2022-10-31T00:38:46.064Z,88.13
2022-10-31T00:41:20.900Z,88.08
2022-10-31T00:44:18.313Z,88.12
2022-10-31T00:46:53.632Z,87.97
2022-10-31T00:49:51.313Z,87.76
2022-10-31T00:52:25.568Z,87.70
2022-10-31T00:55:03.168Z,87.85
2022-10-31T00:57:37.589Z,88.25
2022-10-31T01:00:13.362Z,88.22
2022-10-31T01:02:44.226Z,88.11
2022-10-31T01:05:41.433Z,88.01
2022-10-31T01:08:15.632Z,88.08
2022-10-31T01:11:05.984Z,88.18
2022-10-31T01:13:42.012Z,88.04
2022-10-31T01:16:20.480Z,87.92
2022-10-31T01:18:54.932Z,87.90
2022-10-31T01:21:30.561Z,87.73
2022-10-31T01:24:05.125Z,87.76
2022-10-31T01:26:41.012Z,87.88
2022-10-31T01:29:16.562Z,87.93
2022-10-31T01:31:50.652Z,87.89
2022-10-31T01:34:26.460Z,87.86
2022-10-31T01:37:00.551Z,88.15
2022-10-31T01:39:36.590Z,88.44
2022-10-31T01:42:25.401Z,88.56
2022-10-31T01:45:02.846Z,88.77
2022-10-31T01:47:48.693Z,88.86
2022-10-31T01:50:38.042Z,88.89
2022-10-31T01:53:14.712Z,88.41
2022-10-31T01:55:57.013Z,88.54
2022-10-31T01:58:33.790Z,88.72
2022-10-31T02:01:09.709Z,88.96
2022-10-31T02:03:47.790Z,89.03
2022-10-31T02:06:56.093Z,89.15
2022-10-31T02:09:27.713Z,89.30
2022-10-31T02:12:00.805Z,89.31
2022-10-31T02:14:32.605Z,89.15
2022-10-31T02:17:08.401Z,88.82
2022-10-31T02:20:04.035Z,88.52
2022-10-31T02:23:00.532Z,88.41
2022-10-31T02:25:53.823Z,88.41
2022-10-31T02:28:48.083Z,88.30
2022-10-31T02:31:56.403Z,88.68
2022-10-31T02:34:55.523Z,88.84
2022-10-31T02:38:00.403Z,88.85
2022-10-31T02:41:14.732Z,88.90
2022-10-31T02:44:33.363Z,88.99
2022-10-31T02:47:38.657Z,89.06
2022-10-31T02:50:45.545Z,89.04
2022-10-31T02:53:21.915Z,89.03
2022-10-31T02:56:01.417Z,89.01
2022-10-31T02:58:46.605Z,89.11
2022-10-31T03:01:49.689Z,89.07
2022-10-31T03:04:47.647Z,89.06
2022-10-31T03:08:01.885Z,88.95
2022-10-31T03:10:57.247Z,88.89
2022-10-31T03:13:57.144Z,88.99
2022-10-31T03:16:48.647Z,89.00
2022-10-31T03:19:33.885Z,88.85
2022-10-31T03:22:20.963Z,88.66
2022-10-31T03:25:05.928Z,88.54
2022-10-31T03:27:45.227Z,88.50
2022-10-31T03:30:16.129Z,88.52
2022-10-31T03:32:55.938Z,88.67
2022-10-31T03:35:29.119Z,88.76
2022-10-31T03:38:07.898Z,88.75
2022-10-31T03:40:41.886Z,88.72
2022-10-31T03:43:26.004Z,88.71
2022-10-31T03:46:01.097Z,88.74
2022-10-31T03:48:36.510Z,88.74
2022-10-31T03:51:17.498Z,88.66
2022-10-31T03:54:04.696Z,88.77
2022-10-31T03:57:14.216Z,88.98
2022-10-31T03:59:57.897Z,89.29
2022-10-31T04:02:39.492Z,89.32
2022-10-31T04:05:19.197Z,89.34
2022-10-31T04:07:58.649Z,89.44
2022-10-31T04:10:38.510Z,89.48
2022-10-31T04:13:27.312Z,89.40
2022-10-31T04:16:02.700Z,89.34
2022-10-31T04:18:38.408Z,89.21
2022-10-31T04:21:11.487Z,89.41
2022-10-31T04:23:45.287Z,89.54
2022-10-31T04:26:20.251Z,89.46
2022-10-31T04:28:53.173Z,89.53
2022-10-31T04:31:23.037Z,89.50
2022-10-31T04:34:02.369Z,89.55
2022-10-31T04:36:38.188Z,89.55
2022-10-31T04:39:15.107Z,89.57
2022-10-31T04:41:44.242Z,89.72
2022-10-31T04:44:17.809Z,89.70
2022-10-31T04:46:54.149Z,89.65
2022-10-31T04:49:27.391Z,89.63
2022-10-31T04:51:56.149Z,89.68
2022-10-31T04:54:31.107Z,89.60
2022-10-31T04:57:08.748Z,89.49
2022-10-31T04:59:37.527Z,89.38
2022-10-31T05:02:11.416Z,89.17
2022-10-31T05:04:45.296Z,89.14
2022-10-31T05:07:14.030Z,89.20
2022-10-31T05:09:54.836Z,89.30
2022-10-31T05:12:30.230Z,89.40
2022-10-31T05:15:07.478Z,89.64
2022-10-31T05:17:44.138Z,89.66
2022-10-31T05:20:21.119Z,89.67
2022-10-31T05:22:58.868Z,89.69
2022-10-31T05:25:34.734Z,89.86
2022-10-31T05:28:03.697Z,90.01
2022-10-31T05:30:34.590Z,90.05
2022-10-31T05:33:11.168Z,90.08
2022-10-31T05:35:46.209Z,90.01
2022-10-31T05:38:19.328Z,90.02
2022-10-31T05:40:50.608Z,89.97
2022-10-31T05:43:25.168Z,89.92
2022-10-31T05:45:59.228Z,89.99
2022-10-31T05:48:31.129Z,89.91
2022-10-31T05:51:00.084Z,89.98
2022-10-31T05:53:58.208Z,90.07
2022-10-31T05:56:34.188Z,90.22
2022-10-31T05:59:09.208Z,90.26
2022-10-31T06:01:37.993Z,90.14
2022-10-31T06:04:06.648Z,90.08
2022-10-31T06:06:35.327Z,90.07
2022-10-31T06:09:04.119Z,89.93
2022-10-31T06:11:32.709Z,89.87
2022-10-31T06:14:01.388Z,89.73
2022-10-31T06:16:29.862Z,89.72
2022-10-31T06:18:58.672Z,89.77
2022-10-31T06:21:27.447Z,89.63
2022-10-31T06:23:56.128Z,89.54
2022-10-31T06:26:24.928Z,89.47
2022-10-31T06:28:53.829Z,89.31
2022-10-31T06:31:22.608Z,89.41
2022-10-31T06:33:51.189Z,89.32
2022-10-31T06:36:19.917Z,89.37
2022-10-31T06:38:48.699Z,89.48
2022-10-31T06:41:17.668Z,89.66
2022-10-31T06:43:48.691Z,89.55
2022-10-31T06:46:17.488Z,89.49
2022-10-31T06:48:46.292Z,89.41
2022-10-31T06:51:16.088Z,89.34
2022-10-31T06:53:44.888Z,89.16
2022-10-31T06:56:13.768Z,88.97
2022-10-31T06:58:42.468Z,88.89
2022-10-31T07:01:11.463Z,88.72
2022-10-31T07:03:40.469Z,88.61
2022-10-31T07:06:09.053Z,88.58
2022-10-31T07:08:37.828Z,88.41
2022-10-31T07:11:07.031Z,88.81
2022-10-31T07:13:36.108Z,89.28
2022-10-31T07:16:08.012Z,89.40
2022-10-31T07:18:37.591Z,89.24
2022-10-31T07:21:07.149Z,88.90
2022-10-31T07:23:35.990Z,88.74
2022-10-31T07:26:04.930Z,88.55
2022-10-31T07:28:33.669Z,88.31
2022-10-31T07:31:02.656Z,88.19
2022-10-31T07:33:31.248Z,88.10
2022-10-31T07:36:00.029Z,88.06
2022-10-31T07:38:28.751Z,87.90
2022-10-31T07:40:57.350Z,87.84
2022-10-31T07:43:26.090Z,87.72
2022-10-31T07:45:55.667Z,87.45
2022-10-31T07:48:24.588Z,87.28
2022-10-31T07:50:53.268Z,87.02
2022-10-31T07:53:22.170Z,86.86
2022-10-31T07:55:50.749Z,86.86
2022-10-31T07:58:19.390Z,86.75
2022-10-31T08:00:49.620Z,86.70
2022-10-31T08:03:20.747Z,86.75
2022-10-31T08:05:49.429Z,86.41
2022-10-31T08:08:18.385Z,85.93
2022-10-31T08:10:47.078Z,85.56
2022-10-31T08:13:16.213Z,85.26
2022-10-31T08:15:45.969Z,84.56
2022-10-31T08:18:16.509Z,83.56
2022-10-31T08:20:45.474Z,83.26
2022-10-31T08:23:15.349Z,82.68
2022-10-31T08:25:44.214Z,82.24
2022-10-31T08:28:13.388Z,81.35
2022-10-31T08:30:43.255Z,81.21
2022-10-31T08:33:19.390Z,80.89
2022-10-31T08:35:48.887Z,80.56
2022-10-31T08:38:17.714Z,80.08
2022-10-31T08:40:50.916Z,78.60
2022-10-31T08:43:20.568Z,77.73
2022-10-31T08:45:51.071Z,76.49
2022-10-31T08:48:19.989Z,76.41
2022-10-31T08:50:49.088Z,76.14
2022-10-31T08:53:20.851Z,75.73
2022-10-31T08:55:49.540Z,75.71
2022-10-31T08:58:22.537Z,75.09
2022-10-31T09:00:54.848Z,74.39
2022-10-31T09:03:30.309Z,73.60
2022-10-31T09:06:04.623Z,73.59
2022-10-31T09:08:34.690Z,72.59
2022-10-31T09:11:05.128Z,73.18
2022-10-31T09:13:36.479Z,72.52
2022-10-31T09:16:09.238Z,71.78
2022-10-31T09:18:37.908Z,71.67
2022-10-31T09:21:06.630Z,71.80
2022-10-31T09:23:35.326Z,71.27
2022-10-31T09:26:05.188Z,71.68
2022-10-31T09:28:34.708Z,71.38
2022-10-31T09:31:03.389Z,71.04
2022-10-31T09:33:31.989Z,71.40
2022-10-31T09:36:00.972Z,71.37
2022-10-31T09:38:29.669Z,71.54
2022-10-31T09:41:26.150Z,70.83
2022-10-31T09:44:00.634Z,71.07
2022-10-31T09:46:55.629Z,71.16
2022-10-31T09:50:28.408Z,70.32
2022-10-31T09:53:12.577Z,70.70
2022-10-31T09:55:46.369Z,70.77
2022-10-31T09:58:40.155Z,70.73
2022-10-31T10:01:55.876Z,70.70
2022-10-31T10:04:42.655Z,70.72
2022-10-31T10:07:31.611Z,70.62
2022-10-31T10:10:16.296Z,69.95
2022-10-31T10:13:10.298Z,70.08
2022-10-31T10:16:07.606Z,69.65
2022-10-31T10:19:00.396Z,69.66
2022-10-31T10:21:53.929Z,69.76
2022-10-31T10:25:23.088Z,69.33
2022-10-31T10:28:24.941Z,69.40
2022-10-31T10:31:05.439Z,69.30
2022-10-31T10:33:52.895Z,69.23
2022-10-31T10:36:46.448Z,69.68
2022-10-31T10:39:32.056Z,69.48
2022-10-31T10:42:20.032Z,69.70
2022-10-31T10:45:10.367Z,69.43
2022-10-31T10:48:12.191Z,69.39
2022-10-31T10:50:50.807Z,69.40
2022-10-31T10:53:36.947Z,68.93
2022-10-31T10:56:12.988Z,69.28
2022-10-31T10:58:44.030Z,68.99
2022-10-31T11:03:49.510Z,67.29
2022-10-31T11:06:27.413Z,66.63
2022-10-31T11:08:56.192Z,66.60
2022-10-31T11:11:31.856Z,65.97
2022-10-31T11:14:18.239Z,66.55
2022-10-31T11:16:52.873Z,66.02
2022-10-31T11:19:28.305Z,65.71
2022-10-31T11:22:10.090Z,65.17
2022-10-31T11:24:43.609Z,65.05
2022-10-31T11:27:38.507Z,65.04
2022-10-31T11:30:11.008Z,65.11
2022-10-31T11:32:52.415Z,64.62
2022-10-31T11:35:26.135Z,64.57
2022-10-31T11:38:00.574Z,65.02
2022-10-31T11:40:29.999Z,64.97
2022-10-31T11:43:00.884Z,65.14
2022-10-31T11:45:38.181Z,64.73
2022-10-31T11:48:21.306Z,64.58
2022-10-31T11:50:58.128Z,64.75
2022-10-31T11:53:35.055Z,64.44
2022-10-31T11:56:17.048Z,64.17
2022-10-31T11:59:04.432Z,64.42
2022-10-31T12:01:34.989Z,64.21
2022-10-31T12:04:15.357Z,64.30
2022-10-31T12:06:47.494Z,64.43
2022-10-31T12:09:28.568Z,64.43
2022-10-31T12:12:34.329Z,64.21
2022-10-31T12:15:39.721Z,64.54
2022-10-31T12:18:30.178Z,64.87
2022-10-31T12:21:52.596Z,64.40
2022-10-31T12:25:04.308Z,63.78
2022-10-31T12:28:09.032Z,64.21
2022-10-31T12:31:08.343Z,63.86
2022-10-31T12:34:02.626Z,63.45
2022-10-31T12:37:12.265Z,64.03
2022-10-31T12:40:29.509Z,63.93
2022-10-31T12:43:13.583Z,63.51
2022-10-31T12:46:00.606Z,64.06
2022-10-31T12:48:58.441Z,64.14
2022-10-31T12:52:03.665Z,64.19
2022-10-31T12:54:54.786Z,64.22
2022-10-31T12:57:32.613Z,64.34
2022-10-31T13:00:19.467Z,63.79
2022-10-31T13:03:06.358Z,63.92
2022-10-31T13:05:43.528Z,64.12
2022-10-31T13:08:52.732Z,64.05
2022-10-31T13:11:36.586Z,64.29
2022-10-31T13:14:43.351Z,64.33
2022-10-31T13:17:36.726Z,64.34
2022-10-31T13:20:31.306Z,64.51
2022-10-31T13:23:44.705Z,64.45
2022-10-31T13:26:25.310Z,64.66
2022-10-31T13:29:14.027Z,64.66
2022-10-31T13:31:45.007Z,64.27
2022-10-31T13:34:43.908Z,64.37
2022-10-31T13:37:16.087Z,64.09
2022-10-31T13:40:28.966Z,64.27
2022-10-31T13:43:01.096Z,64.59
2022-10-31T13:45:33.562Z,64.66
2022-10-31T13:48:19.243Z,64.80
2022-10-31T13:51:06.027Z,65.02
2022-10-31T13:53:47.042Z,65.29
2022-10-31T13:56:23.585Z,65.29
2022-10-31T13:59:24.766Z,65.37
2022-10-31T14:02:16.406Z,65.36
2022-10-31T14:05:35.885Z,65.94
2022-10-31T14:08:08.005Z,66.70
2022-10-31T14:10:55.508Z,67.25
2022-10-31T14:13:44.185Z,67.64
2022-10-31T14:16:29.546Z,67.88
2022-10-31T14:19:16.363Z,68.15
2022-10-31T14:21:50.388Z,68.39
2022-10-31T14:24:35.547Z,68.50
2022-10-31T14:27:30.048Z,68.61
2022-10-31T14:30:17.952Z,68.74
2022-10-31T14:32:58.850Z,68.79
2022-10-31T14:35:53.138Z,69.03
2022-10-31T14:39:00.558Z,69.37
2022-10-31T14:42:09.866Z,69.81
2022-10-31T14:45:03.426Z,70.26
2022-10-31T14:47:46.968Z,70.79
2022-10-31T14:50:57.030Z,71.16
2022-10-31T14:53:36.726Z,71.45
2022-10-31T14:56:13.006Z,71.80
2022-10-31T14:58:50.227Z,72.15
2022-10-31T15:01:30.000Z,72.39
2022-10-31T15:04:23.097Z,72.57
2022-10-31T15:07:24.985Z,73.01
2022-10-31T15:10:03.898Z,73.64
2022-10-31T15:12:38.993Z,74.24
2022-10-31T15:15:27.909Z,74.46
2022-10-31T15:18:02.685Z,74.58
2022-10-31T15:20:43.373Z,74.78
2022-10-31T15:23:18.765Z,75.07
2022-10-31T15:25:48.166Z,75.38
2022-10-31T15:28:26.186Z,75.66
2022-10-31T15:31:01.439Z,76.09
2022-10-31T15:33:45.231Z,76.33
2022-10-31T15:36:29.256Z,76.44
2022-10-31T15:39:00.745Z,76.60
2022-10-31T15:41:56.252Z,76.83
2022-10-31T15:44:37.854Z,77.27
2022-10-31T15:53:37.089Z,78.60
2022-10-31T15:56:14.714Z,78.98
2022-10-31T15:58:52.281Z,79.36
2022-10-31T16:01:26.441Z,79.16
2022-10-31T16:04:23.336Z,79.37
2022-10-31T16:07:18.775Z,79.73
2022-10-31T16:09:58.075Z,80.10
2022-10-31T16:12:38.337Z,80.24
2022-10-31T16:15:17.270Z,80.35
2022-10-31T16:17:50.648Z,80.29
2022-10-31T16:20:30.458Z,80.58
2022-10-31T16:23:00.679Z,80.90
2022-10-31T16:25:38.833Z,81.13
2022-10-31T16:28:18.813Z,81.29
2022-10-31T16:30:53.722Z,81.48
2022-10-31T16:33:41.785Z,81.56
2022-10-31T16:36:36.492Z,81.96
2022-10-31T16:39:06.485Z,82.36
2022-10-31T16:41:44.722Z,82.47
2022-10-31T16:44:20.432Z,82.43
2022-10-31T16:46:49.436Z,82.56
2022-10-31T16:49:17.942Z,83.04
2022-10-31T16:51:47.012Z,83.47
2022-10-31T16:54:15.692Z,83.62
2022-10-31T16:56:44.302Z,83.54
2022-10-31T16:59:16.423Z,83.75
2022-10-31T17:01:50.409Z,84.12
2022-10-31T17:04:19.154Z,84.30
2022-10-31T17:06:48.083Z,84.30
2022-10-31T17:09:17.035Z,84.58
2022-10-31T17:11:53.812Z,84.53
2022-10-31T17:14:22.938Z,84.59
2022-10-31T17:16:52.733Z,84.55
2022-10-31T17:19:21.414Z,84.71
2022-10-31T17:21:50.234Z,85.10
2022-10-31T17:24:18.773Z,85.01
2022-10-31T17:26:47.776Z,85.01
2022-10-31T17:29:16.454Z,85.14
2022-10-31T17:31:45.554Z,85.50
2022-10-31T17:34:14.255Z,85.68
2022-10-31T17:36:43.035Z,85.71
2022-10-31T17:39:11.979Z,85.68
2022-10-31T17:41:40.602Z,85.89
2022-10-31T17:44:12.399Z,85.76
2022-10-31T17:46:40.942Z,85.99
2022-10-31T17:49:12.962Z,86.18
2022-10-31T17:51:41.594Z,86.25
2022-10-31T17:54:11.293Z,86.33
2022-10-31T17:56:40.094Z,86.70
2022-10-31T17:59:08.801Z,86.67
2022-10-31T18:01:38.678Z,86.73
2022-10-31T18:04:07.495Z,87.16
2022-10-31T18:06:36.276Z,87.28
2022-10-31T18:09:07.262Z,87.02
2022-10-31T18:11:35.891Z,86.84
2022-10-31T18:14:04.743Z,87.03
2022-10-31T18:16:33.752Z,87.10
2022-10-31T18:19:02.462Z,87.31
2022-10-31T18:21:31.678Z,87.51
2022-10-31T18:24:03.276Z,87.37
2022-10-31T18:26:34.751Z,87.46
2022-10-31T18:29:05.005Z,87.46
2022-10-31T18:31:33.488Z,87.31
2022-10-31T18:34:02.278Z,87.37
2022-10-31T18:36:31.266Z,87.30
2022-10-31T18:38:59.953Z,87.23
2022-10-31T18:41:28.632Z,87.13
2022-10-31T18:44:00.859Z,87.18
2022-10-31T18:46:29.836Z,87.63
2022-10-31T18:48:58.683Z,87.91
2022-10-31T18:51:28.572Z,87.63
2022-10-31T18:54:00.772Z,88.43
2022-10-31T18:56:34.480Z,88.67
2022-10-31T18:59:03.677Z,88.75
2022-10-31T19:01:32.791Z,88.75
2022-10-31T19:04:01.862Z,88.83
2022-10-31T19:06:31.308Z,89.26
2022-10-31T19:09:04.323Z,89.48
2022-10-31T19:11:35.150Z,89.40
2022-10-31T19:14:05.212Z,89.39
2022-10-31T19:16:33.793Z,89.15
2022-10-31T19:19:03.609Z,89.12
2022-10-31T19:21:32.915Z,88.73
2022-10-31T19:24:02.424Z,88.45
2022-10-31T19:26:33.510Z,88.43
2022-10-31T19:29:02.457Z,88.52
2022-10-31T19:31:31.456Z,88.48
2022-10-31T19:34:00.024Z,88.82
2022-10-31T19:36:30.037Z,88.94
2022-10-31T19:38:58.729Z,88.65
2022-10-31T19:41:29.794Z,88.77
2022-10-31T19:44:01.465Z,88.74
2022-10-31T19:49:18.773Z,89.61
2022-10-31T19:51:47.448Z,89.81
2022-10-31T19:54:16.378Z,90.05
2022-10-31T19:56:45.257Z,90.23
2022-10-31T19:59:14.040Z,90.09
2022-10-31T20:01:42.706Z,90.11
2022-10-31T20:04:11.870Z,90.14
2022-10-31T20:06:42.337Z,90.19
2022-10-31T20:09:14.051Z,90.19
2022-10-31T20:11:45.578Z,90.02
2022-10-31T20:14:17.879Z,89.78
2022-10-31T20:16:47.274Z,89.65
2022-10-31T20:19:15.799Z,89.49
2022-10-31T20:21:44.537Z,89.36
2022-10-31T20:24:13.278Z,89.40
2022-10-31T20:26:42.462Z,89.34
2022-10-31T20:29:19.904Z,89.24
2022-10-31T20:31:49.476Z,89.14
2022-10-31T20:34:18.384Z,89.05
2022-10-31T20:36:47.052Z,89.03
2022-10-31T20:39:15.736Z,88.90
2022-10-31T20:41:44.319Z,88.99
2022-10-31T20:44:13.012Z,88.95
2022-10-31T20:46:42.006Z,88.85
2022-10-31T20:49:10.677Z,88.93
2022-10-31T20:51:39.315Z,88.83
2022-10-31T20:54:07.856Z,88.74
2022-10-31T20:56:36.565Z,88.60
2022-10-31T20:59:05.227Z,88.62
2022-10-31T21:01:36.819Z,88.72
2022-10-31T21:04:06.617Z,88.82
2022-10-31T21:06:35.886Z,88.86
2022-10-31T21:09:05.826Z,88.94
2022-10-31T21:11:34.888Z,88.82
2022-10-31T21:14:03.387Z,88.57
2022-10-31T21:16:36.326Z,88.59
2022-10-31T21:19:06.082Z,88.88
2022-10-31T21:21:37.431Z,88.86
2022-10-31T21:24:11.840Z,88.76
2022-10-31T21:26:44.690Z,88.63
2022-10-31T21:29:14.736Z,88.82
2022-10-31T21:31:44.240Z,89.49
2022-10-31T21:34:13.516Z,89.70
2022-10-31T21:36:42.460Z,89.75
2022-10-31T21:39:11.015Z,89.94
2022-10-31T21:41:40.094Z,90.04
2022-10-31T21:44:08.725Z,90.16
2022-10-31T21:46:39.161Z,90.20
2022-10-31T21:49:07.926Z,90.06
2022-10-31T21:51:37.376Z,90.09
2022-10-31T21:54:25.078Z,90.11
2022-10-31T21:56:55.438Z,90.19
2022-10-31T21:59:24.496Z,90.18
2022-10-31T22:01:54.051Z,90.20
2022-10-31T22:04:22.897Z,90.29
2022-10-31T22:06:51.686Z,90.20
2022-10-31T22:09:20.785Z,90.15
2022-10-31T22:11:49.351Z,89.98
2022-10-31T22:14:18.056Z,89.98
2022-10-31T22:16:46.726Z,90.13
2022-10-31T22:19:15.808Z,90.38
2022-10-31T22:21:49.257Z,90.53
2022-10-31T22:24:19.035Z,90.54
2022-10-31T22:26:48.135Z,90.33
2022-10-31T22:29:20.088Z,90.12
2022-10-31T22:31:53.529Z,90.08
2022-10-31T22:34:26.179Z,90.19
2022-10-31T22:36:56.532Z,90.19
2022-10-31T22:39:25.177Z,90.49
2022-10-31T22:41:53.976Z,90.71
2022-10-31T22:44:22.776Z,91.06
2022-10-31T22:46:51.427Z,91.23
2022-10-31T22:49:20.036Z,91.27
2022-10-31T22:51:52.367Z,91.14
2022-10-31T22:54:20.949Z,91.25
2022-10-31T22:56:49.457Z,91.28
